Voyager — C6WC2 — position and weather

sailwx.info

Track history (hours):
 
Tides and Currents Weather Stations Pressure Air Temp Water Temp Dewpoint Dewpoint Depression Visibility Wind Speed Wind Dir Waves Ship Positions

Voyager

Last reported at 2014-Oct-23 15:07 UTC. Time now 2014-Oct-25 17:40 UTC.
Position N 40°54' E 028°50'.

Length 151 m; draft 6 m.

Type: Passenger vessel. MMSI: 309695000.

Date/timePositionNaut miles runAvg speedWind from/ knotsBaromVisibWave heightAir tempDewpointWater temp
2014-Oct-23 15:07N 40°54' E 028°50'814.2
2014-Oct-23 14:33N 40°59' E 028°59'3 0.1
2014-Oct-22 12:17N 41°01' E 028°59'0 0.0
2014-Oct-22 06:29N 41°01' E 028°59'0 0.0
2014-Oct-21 23:23N 41°01' E 028°59'0 0.0
2014-Oct-21 18:23N 41°01' E 028°59'0 0.0
2014-Oct-21 17:29N 41°01' E 028°59'0 0.0
2014-Oct-21 16:17N 41°01' E 028°59'0 0.0
2014-Oct-21 14:11N 41°01' E 028°59'0 0.0
2014-Oct-21 03:32N 41°01' E 028°59'8 7.2
2014-Oct-21 02:25N 41°09' E 029°04'17 8.5
2014-Oct-21 00:25N 41°26' E 029°02'  
2014-Oct-17 05:24N 44°02' E 034°23'910.9
2014-Oct-17 04:34N 44°01' E 034°35'1110.8
2014-Oct-17 03:34N 44°00' E 034°50'12210.7
2014-Oct-16 16:10N 44°30' E 037°35'710.9
2014-Oct-16 15:33N 44°34' E 037°43'9 8.9
2014-Oct-16 14:34N 44°42' E 037°49'2 2.1
2014-Oct-16 13:33N 44°43' E 037°47'0 0.0
2014-Oct-16 12:33N 44°43' E 037°47'0 0.0
2014-Oct-16 11:33N 44°43' E 037°47'0 0.0
2014-Oct-16 10:33N 44°43' E 037°47'0 0.0
2014-Oct-16 09:33N 44°43' E 037°47'0 0.0
2014-Oct-16 08:33N 44°43' E 037°47'0 0.0
2014-Oct-16 07:33N 44°43' E 037°47'0 0.0
2014-Oct-16 06:33N 44°43' E 037°47'0 0.0
2014-Oct-16 05:33N 44°43' E 037°47'0 0.0
2014-Oct-16 04:33N 44°43' E 037°47'0 0.0
2014-Oct-16 03:34N 44°43' E 037°47'6 6.2
2014-Oct-16 02:34N 44°38' E 037°52'1010.1
2014-Oct-16 01:33N 44°28' E 037°52'10 9.2
2014-Oct-16 00:29N 44°18' E 037°55'  
Track history (hours):
 
Tides and Currents Weather Stations Pressure Air Temp Water Temp Dewpoint Dewpoint Depression Visibility Wind Speed Wind Dir Waves Ship Positions

Voyager

Last reported at 2014-Oct-23 15:07 UTC. Time now 2014-Oct-25 17:40 UTC.
Position N 40°54' E 028°50'.

Length 151 m; draft 6 m.

Type: Passenger vessel. MMSI: 309695000.

Date/timePositionNaut miles runAvg speedWind from/ knotsBaromVisibWave heightAir tempDewpointWater temp
2014-Oct-23 15:07N 40°54' E 028°50'814.2
2014-Oct-23 14:33N 40°59' E 028°59'3 0.1
2014-Oct-22 12:17N 41°01' E 028°59'0 0.0
2014-Oct-22 06:29N 41°01' E 028°59'0 0.0
2014-Oct-21 23:23N 41°01' E 028°59'0 0.0
2014-Oct-21 18:23N 41°01' E 028°59'0 0.0
2014-Oct-21 17:29N 41°01' E 028°59'0 0.0
2014-Oct-21 16:17N 41°01' E 028°59'0 0.0
2014-Oct-21 14:11N 41°01' E 028°59'0 0.0
2014-Oct-21 03:32N 41°01' E 028°59'8 7.2
2014-Oct-21 02:25N 41°09' E 029°04'17 8.5
2014-Oct-21 00:25N 41°26' E 029°02'  
2014-Oct-17 05:24N 44°02' E 034°23'910.9
2014-Oct-17 04:34N 44°01' E 034°35'1110.8
2014-Oct-17 03:34N 44°00' E 034°50'12210.7
2014-Oct-16 16:10N 44°30' E 037°35'710.9
2014-Oct-16 15:33N 44°34' E 037°43'9 8.9
2014-Oct-16 14:34N 44°42' E 037°49'2 2.1
2014-Oct-16 13:33N 44°43' E 037°47'0 0.0
2014-Oct-16 12:33N 44°43' E 037°47'0 0.0
2014-Oct-16 11:33N 44°43' E 037°47'0 0.0
2014-Oct-16 10:33N 44°43' E 037°47'0 0.0
2014-Oct-16 09:33N 44°43' E 037°47'0 0.0
2014-Oct-16 08:33N 44°43' E 037°47'0 0.0
2014-Oct-16 07:33N 44°43' E 037°47'0 0.0
2014-Oct-16 06:33N 44°43' E 037°47'0 0.0
2014-Oct-16 05:33N 44°43' E 037°47'0 0.0
2014-Oct-16 04:33N 44°43' E 037°47'0 0.0
2014-Oct-16 03:34N 44°43' E 037°47'6 6.2
2014-Oct-16 02:34N 44°38' E 037°52'1010.1
2014-Oct-16 01:33N 44°28' E 037°52'10 9.2
2014-Oct-16 00:29N 44°18' E 037°55'  

Dump ship's entire track history